Time;durP1;ratioP1;P1;durP2;ratioP2;P2;SDS_P1;SDS_P2;PMS_P1;PMS_P2;Temp;Humidity;BMP_temperature;BMP_pressure;BME280_temperature;BME280_humidity;BME280_pressure;Samples;Min_cycle;Max_cycle;Signal;HPM_P1;HPM_P2
2021/12/17 00:01:15;;;;;;;31.02;9.75;;;9.40;99.90;;;;;;5089720;28;20405;-73
2021/12/17 00:03:50;;;;;;;25.98;9.40;;;9.30;99.90;;;;;;5090189;28;20256;-74
2021/12/17 00:08:53;;;;;;;27.23;9.48;;;9.30;99.90;;;;;;5084321;28;20055;-75
2021/12/17 00:11:21;;;;;;;26.83;9.50;;;9.30;99.90;;;;;;5090180;28;20560;-73
2021/12/17 00:13:48;;;;;;;24.88;9.80;;;9.30;99.90;;;;;;5073882;28;20052;-73
2021/12/17 00:16:23;;;;;;;26.40;8.73;;;9.30;99.90;;;;;;5069555;28;20040;-73
2021/12/17 00:19:05;;;;;;;23.42;8.75;;;9.30;99.90;;;;;;5087852;28;20071;-73
2021/12/17 00:48:46;;;;;;;9.10;3.67;;;9.20;99.90;;;;;;5084861;28;20039;-73
2021/12/17 00:54:07;;;;;;;7.82;3.80;;;9.20;99.90;;;;;;5084089;28;20053;-74
2021/12/17 00:56:35;;;;;;;8.77;3.70;;;9.20;99.90;;;;;;5091841;28;20157;-74
2021/12/17 00:59:01;;;;;;;7.97;4.18;;;9.20;99.90;;;;;;5091092;28;20077;-73
2021/12/17 01:01:27;;;;;;;11.50;4.28;;;9.20;99.90;;;;;;5088254;28;20052;-73
2021/12/17 01:03:54;;;;;;;9.95;4.47;;;9.20;99.90;;;;;;5073254;28;20051;-75
2021/12/17 01:06:20;;;;;;;12.98;5.00;;;9.20;99.90;;;;;;5085439;28;20048;-73
2021/12/17 01:08:48;;;;;;;16.45;5.60;;;9.20;99.90;;;;;;5076555;28;20048;-73
2021/12/17 01:11:14;;;;;;;15.80;5.38;;;9.20;99.90;;;;;;5083070;28;20389;-73
2021/12/17 01:13:41;;;;;;;15.45;5.60;;;9.20;99.90;;;;;;5086128;28;20457;-73
2021/12/17 01:16:08;;;;;;;15.50;6.03;;;9.20;99.90;;;;;;5074511;28;20040;-73
2021/12/17 01:19:25;;;;;;;16.48;6.10;;;9.20;99.90;;;;;;5095727;28;20032;-73
2021/12/17 01:24:15;;;;;;;14.25;5.18;;;9.10;99.90;;;;;;5088570;28;20074;-74
2021/12/17 01:35:21;;;;;;;20.20;6.57;;;9.10;99.90;;;;;;5088499;28;20051;-74
2021/12/17 01:38:45;;;;;;;22.88;7.00;;;9.10;99.90;;;;;;5083913;28;21279;-73
2021/12/17 01:43:18;;;;;;;20.75;6.93;;;9.00;99.90;;;;;;5101267;28;20044;-73
2021/12/17 01:45:44;;;;;;;18.25;6.47;;;9.10;99.90;;;;;;5089690;28;20082;-73
2021/12/17 01:48:16;;;;;;;19.35;6.80;;;9.10;99.90;;;;;;5088234;28;20409;-73
2021/12/17 01:56:53;;;;;;;15.30;6.03;;;9.10;99.90;;;;;;5088702;28;20047;-73
2021/12/17 01:59:21;;;;;;;17.58;6.03;;;9.10;99.90;;;;;;5088769;28;20135;-73
2021/12/17 02:01:48;;;;;;;16.70;6.00;;;9.10;99.90;;;;;;5088908;28;20048;-73
2021/12/17 02:04:13;;;;;;;14.13;5.40;;;9.00;99.90;;;;;;5093029;28;20048;-73
2021/12/17 02:06:39;;;;;;;10.82;4.80;;;9.00;99.90;;;;;;5075485;28;20044;-73
2021/12/17 02:09:43;;;;;;;8.45;4.18;;;9.10;99.90;;;;;;5092732;28;20072;-73
2021/12/17 02:19:26;;;;;;;8.27;4.07;;;9.10;99.90;;;;;;5087784;28;20108;-73
2021/12/17 02:20:39;;;;;;;;;;;9.00;99.90;;;;;;5083311;28;20098;-74
2021/12/17 02:31:29;;;;;;;9.77;4.30;;;9.80;99.90;;;;;;5091026;28;20052;-73
2021/12/17 02:34:08;;;;;;;10.15;4.20;;;9.00;99.90;;;;;;5084364;28;20055;-74
2021/12/17 02:36:35;;;;;;;10.00;4.70;;;9.00;99.90;;;;;;5123033;27;20044;-73
2021/12/17 02:39:29;;;;;;;11.20;3.97;;;9.00;99.90;;;;;;5085245;28;20087;-73
2021/12/17 02:47:18;;;;;;;7.97;3.88;;;9.00;99.90;;;;;;5081425;28;20062;-73
2021/12/17 02:49:46;;;;;;;9.60;3.70;;;9.20;99.90;;;;;;5087229;28;20044;-73
2021/12/17 02:52:13;;;;;;;10.60;4.00;;;9.00;99.90;;;;;;5070731;28;20052;-74
2021/12/17 02:54:40;;;;;;;10.30;3.90;;;9.00;99.90;;;;;;5066467;28;20303;-74
2021/12/17 02:57:08;;;;;;;8.98;3.38;;;9.00;99.90;;;;;;5089320;28;20058;-74
2021/12/17 02:59:35;;;;;;;11.07;3.70;;;9.00;99.90;;;;;;5085419;28;20055;-73
2021/12/17 03:02:03;;;;;;;10.93;3.03;;;9.00;99.90;;;;;;5067679;28;20076;-73
2021/12/17 03:04:32;;;;;;;8.88;3.15;;;9.00;99.90;;;;;;5094931;28;20056;-73
2021/12/17 03:06:58;;;;;;;8.30;2.83;;;9.20;99.90;;;;;;5089251;28;20048;-73
2021/12/17 03:09:43;;;;;;;7.93;2.40;;;9.00;99.90;;;;;;5090801;28;20198;-74
2021/12/17 03:12:18;;;;;;;9.27;2.78;;;8.90;99.90;;;;;;5090359;28;20052;-74
2021/12/17 03:14:56;;;;;;;7.13;2.75;;;9.00;99.90;;;;;;5069427;28;20068;-74
2021/12/17 03:17:45;;;;;;;7.75;2.78;;;9.00;99.90;;;;;;5081629;28;20040;-74
2021/12/17 03:25:36;;;;;;;9.13;3.20;;;9.00;99.90;;;;;;5092738;28;20051;-74
2021/12/17 03:28:02;;;;;;;10.45;3.30;;;9.00;99.90;;;;;;5068633;28;20041;-73
2021/12/17 03:30:28;;;;;;;12.77;4.25;;;9.00;99.90;;;;;;5083791;28;20075;-74
2021/12/17 03:32:54;;;;;;;13.40;4.45;;;9.00;99.90;;;;;;5070002;28;20073;-74
2021/12/17 03:35:19;;;;;;;12.18;4.22;;;9.10;99.90;;;;;;5088223;28;20047;-74
2021/12/17 03:37:45;;;;;;;13.55;4.57;;;9.00;99.90;;;;;;5073836;28;20036;-74
2021/12/17 03:40:14;;;;;;;15.73;4.30;;;9.00;99.90;;;;;;5055866;28;20141;-75
2021/12/17 03:42:46;;;;;;;17.25;5.00;;;9.00;99.90;;;;;;5072317;28;20040;-74
2021/12/17 03:45:12;;;;;;;14.13;5.10;;;9.00;99.90;;;;;;5089212;28;20060;-73
2021/12/17 03:47:38;;;;;;;16.60;5.72;;;8.90;99.90;;;;;;5069990;28;20104;-76
2021/12/17 03:50:04;;;;;;;15.05;5.25;;;9.00;99.90;;;;;;5068535;28;20051;-73
2021/12/17 03:52:30;;;;;;;13.25;5.15;;;9.00;99.90;;;;;;5073923;28;20044;-74
2021/12/17 03:54:56;;;;;;;14.05;5.07;;;9.00;99.90;;;;;;5086814;28;20056;-74
2021/12/17 03:57:22;;;;;;;13.68;5.40;;;9.00;99.90;;;;;;5070235;28;20393;-73
2021/12/17 03:59:48;;;;;;;13.35;5.18;;;9.00;99.90;;;;;;5085906;28;20036;-73
2021/12/17 04:02:14;;;;;;;13.85;5.00;;;9.00;99.90;;;;;;5062693;28;20055;-73
2021/12/17 04:04:40;;;;;;;14.60;4.82;;;9.00;99.90;;;;;;5086898;28;20070;-75
2021/12/17 04:07:06;;;;;;;15.18;5.10;;;9.00;99.90;;;;;;5073130;28;20507;-74
2021/12/17 04:09:32;;;;;;;16.88;4.90;;;9.00;99.90;;;;;;5085011;28;20036;-73
2021/12/17 04:12:00;;;;;;;13.48;5.13;;;9.00;99.90;;;;;;5051667;28;20040;-73
2021/12/17 04:14:34;;;;;;;12.48;4.70;;;9.00;99.90;;;;;;5086247;28;20485;-73
2021/12/17 04:17:05;;;;;;;10.30;4.30;;;9.00;99.90;;;;;;5070763;28;20412;-73
2021/12/17 04:19:32;;;;;;;14.93;4.63;;;9.00;99.90;;;;;;5088680;28;20550;-74
2021/12/17 04:21:58;;;;;;;12.60;5.05;;;9.00;99.90;;;;;;5090569;28;20392;-74
2021/12/17 04:24:23;;;;;;;14.98;4.82;;;9.00;99.90;;;;;;5072800;28;20471;-73
2021/12/17 04:26:49;;;;;;;13.40;5.18;;;9.00;99.90;;;;;;5091044;28;20051;-73
2021/12/17 04:29:16;;;;;;;13.57;4.78;;;9.00;99.90;;;;;;5070950;28;20048;-73
2021/12/17 04:31:42;;;;;;;13.88;4.82;;;8.90;99.90;;;;;;5092494;28;20396;-73
2021/12/17 04:34:09;;;;;;;14.10;4.55;;;9.00;99.90;;;;;;5088252;28;20059;-74
2021/12/17 04:36:36;;;;;;;12.73;5.30;;;8.90;99.90;;;;;;5088755;28;20052;-74
2021/12/17 04:39:02;;;;;;;12.48;5.22;;;9.00;99.90;;;;;;5071568;28;20040;-73
2021/12/17 04:44:13;;;;;;;10.50;4.65;;;8.90;99.90;;;;;;5089985;28;20109;-73
2021/12/17 04:46:46;;;;;;;14.15;5.47;;;8.90;99.90;;;;;;5070293;28;20067;-73
2021/12/17 04:59:51;;;;;;;11.35;4.88;;;9.00;99.90;;;;;;5086776;28;22125;-74
2021/12/17 05:02:18;;;;;;;11.57;4.93;;;9.00;99.90;;;;;;5091971;28;20055;-76
2021/12/17 05:04:44;;;;;;;12.77;5.18;;;9.00;99.90;;;;;;5083096;28;20135;-74
2021/12/17 05:07:13;;;;;;;10.13;4.60;;;9.00;99.90;;;;;;5089417;28;20043;-73
2021/12/17 05:09:52;;;;;;;10.27;4.53;;;9.10;99.90;;;;;;5085990;28;20513;-74
2021/12/17 05:20:44;;;;;;;11.70;4.68;;;9.20;99.90;;;;;;5085816;28;20122;-73
2021/12/17 05:23:10;;;;;;;10.10;4.75;;;9.00;99.90;;;;;;5085436;28;20040;-73
2021/12/17 05:25:36;;;;;;;14.38;4.75;;;9.10;99.90;;;;;;5055387;28;20413;-73
2021/12/17 05:28:02;;;;;;;10.45;4.47;;;9.00;99.90;;;;;;5062928;28;20056;-74
2021/12/17 05:30:31;;;;;;;12.30;4.88;;;9.00;99.90;;;;;;5087068;28;20372;-74
2021/12/17 05:32:57;;;;;;;13.10;5.20;;;9.00;99.90;;;;;;5095272;28;20130;-75
2021/12/17 05:35:23;;;;;;;12.93;4.70;;;9.00;99.90;;;;;;5088883;28;20056;-74
2021/12/17 05:37:50;;;;;;;10.70;4.55;;;9.00;99.90;;;;;;5104227;28;20290;-75
2021/12/17 05:40:16;;;;;;;9.75;4.70;;;9.00;99.90;;;;;;5060214;28;20048;-73
2021/12/17 05:42:42;;;;;;;10.32;4.57;;;9.00;99.90;;;;;;5091940;28;20048;-75
2021/12/17 05:45:32;;;;;;;10.90;4.88;;;9.00;99.90;;;;;;5090736;28;20056;-74
2021/12/17 05:47:58;;;;;;;10.77;4.93;;;9.00;99.90;;;;;;5086538;28;20043;-73
2021/12/17 05:50:24;;;;;;;12.05;5.32;;;9.00;99.90;;;;;;5072197;28;20083;-74
2021/12/17 05:52:50;;;;;;;13.25;5.13;;;9.00;99.90;;;;;;5077668;28;20079;-73
2021/12/17 05:55:16;;;;;;;12.90;5.55;;;9.00;99.90;;;;;;5092096;28;20370;-73
2021/12/17 05:57:42;;;;;;;11.82;5.55;;;9.00;99.90;;;;;;5089632;28;20040;-74
2021/12/17 06:00:08;;;;;;;14.00;5.85;;;9.00;99.90;;;;;;5089790;28;20468;-74
2021/12/17 06:02:34;;;;;;;13.93;6.07;;;9.00;99.90;;;;;;5072908;28;20052;-73
2021/12/17 06:05:00;;;;;;;13.30;6.10;;;9.00;99.90;;;;;;5068662;28;20052;-73
2021/12/17 06:07:27;;;;;;;14.05;5.85;;;9.00;99.90;;;;;;5083465;28;20044;-74
2021/12/17 06:09:53;;;;;;;12.80;6.20;;;9.00;99.90;;;;;;5094135;28;20095;-74
2021/12/17 06:12:18;;;;;;;14.30;6.43;;;9.00;99.90;;;;;;5089125;28;20048;-74
2021/12/17 06:14:44;;;;;;;15.88;6.50;;;9.00;99.90;;;;;;5090168;28;20074;-73
2021/12/17 06:17:10;;;;;;;13.30;6.38;;;9.00;99.90;;;;;;5088689;28;20056;-74
2021/12/17 06:19:37;;;;;;;15.48;6.50;;;9.00;99.90;;;;;;5091658;28;20126;-74
2021/12/17 06:22:03;;;;;;;14.63;6.55;;;9.00;99.90;;;;;;5086417;28;20126;-74
2021/12/17 06:24:28;;;;;;;17.15;6.93;;;9.00;99.90;;;;;;5073986;28;20492;-73
2021/12/17 06:26:54;;;;;;;15.95;6.50;;;9.00;99.90;;;;;;5088633;28;20036;-73
2021/12/17 06:29:20;;;;;;;14.85;6.93;;;9.00;99.90;;;;;;5065635;28;20134;-74
2021/12/17 06:31:46;;;;;;;18.42;7.38;;;9.00;99.90;;;;;;5074313;28;20098;-74
2021/12/17 06:34:12;;;;;;;16.05;7.40;;;9.00;99.90;;;;;;5085895;28;20056;-74
2021/12/17 06:36:38;;;;;;;17.27;7.50;;;9.00;99.90;;;;;;5093016;28;20105;-74
2021/12/17 06:39:04;;;;;;;15.52;7.20;;;8.90;99.90;;;;;;5085506;28;20489;-75
2021/12/17 06:41:29;;;;;;;18.58;7.70;;;9.00;99.90;;;;;;5076676;28;20048;-74
2021/12/17 06:43:57;;;;;;;17.13;7.47;;;8.90;99.90;;;;;;5090829;28;20089;-75
2021/12/17 06:49:48;;;;;;;18.33;7.63;;;8.90;99.90;;;;;;5061867;28;20062;-74
2021/12/17 07:11:00;;;;;;;19.48;8.43;;;8.90;99.90;;;;;;5123029;27;20139;-74
2021/12/17 07:19:01;;;;;;;22.33;8.93;;;9.00;99.90;;;;;;5081362;28;20138;-75
2021/12/17 07:35:01;;;;;;;22.90;8.85;;;9.00;99.90;;;;;;5089110;28;19920;-74
2021/12/17 07:39:54;;;;;;;26.88;9.15;;;8.90;99.90;;;;;;5087360;28;20393;-73
2021/12/17 07:42:20;;;;;;;28.20;9.40;;;8.90;99.90;;;;;;5087819;28;20058;-74
2021/12/17 07:44:46;;;;;;;25.27;9.60;;;8.90;99.90;;;;;;5093775;28;20044;-74
2021/12/17 07:47:12;;;;;;;24.80;9.63;;;9.00;99.90;;;;;;5084104;28;20052;-73
2021/12/17 07:49:37;;;;;;;28.95;9.95;;;8.90;99.90;;;;;;5073173;28;20084;-74
2021/12/17 07:52:03;;;;;;;26.02;10.00;;;9.00;99.90;;;;;;5084975;28;20083;-74
2021/12/17 07:54:29;;;;;;;31.98;10.80;;;9.00;99.90;;;;;;5088464;28;20052;-74
2021/12/17 07:56:55;;;;;;;33.33;11.18;;;9.00;99.90;;;;;;5087787;28;20055;-74
2021/12/17 07:59:21;;;;;;;35.38;11.30;;;8.90;99.90;;;;;;5067281;28;20047;-74
2021/12/17 08:01:46;;;;;;;35.92;11.63;;;9.00;99.90;;;;;;5080630;28;20054;-74
2021/12/17 08:04:12;;;;;;;33.38;12.07;;;9.00;99.90;;;;;;5089471;28;20135;-73
2021/12/17 08:06:38;;;;;;;31.77;10.35;;;9.00;99.90;;;;;;5089964;28;20119;-74
2021/12/17 08:09:05;;;;;;;34.72;11.05;;;9.00;99.90;;;;;;5090619;28;20044;-72
2021/12/17 08:11:37;;;;;;;34.63;11.48;;;9.00;99.90;;;;;;5087232;28;20072;-73
2021/12/17 08:14:07;;;;;;;31.40;11.13;;;9.00;99.90;;;;;;5089150;28;20052;-73
2021/12/17 08:16:44;;;;;;;36.30;11.25;;;9.10;99.90;;;;;;5088611;28;20047;-73
2021/12/17 08:24:47;;;;;;;34.75;11.57;;;9.10;99.90;;;;;;5084154;28;20044;-73
2021/12/17 08:30:21;;;;;;;32.08;11.52;;;9.10;99.90;;;;;;5089128;28;20903;-73
2021/12/17 08:32:47;;;;;;;36.55;11.15;;;9.10;99.90;;;;;;5090730;28;20044;-73
2021/12/17 08:35:13;;;;;;;38.75;10.93;;;9.10;99.90;;;;;;5073211;28;20044;-73
2021/12/17 08:37:39;;;;;;;33.58;11.60;;;9.10;99.90;;;;;;5090684;28;20055;-73
2021/12/17 08:40:08;;;;;;;31.60;11.88;;;9.20;99.90;;;;;;5089942;28;20396;-74
2021/12/17 08:42:34;;;;;;;38.30;11.80;;;9.20;99.90;;;;;;5069776;28;20104;-73
2021/12/17 08:45:00;;;;;;;33.78;11.68;;;9.20;99.90;;;;;;5087366;28;20062;-74
2021/12/17 08:47:26;;;;;;;37.42;12.88;;;9.20;99.90;;;;;;5070421;28;20481;-73
2021/12/17 08:49:53;;;;;;;39.55;11.90;;;9.10;99.90;;;;;;5084355;28;20040;-73
2021/12/17 08:52:19;;;;;;;37.20;12.35;;;9.20;99.90;;;;;;5078709;28;20146;-73
2021/12/17 08:54:45;;;;;;;41.00;12.60;;;9.20;99.90;;;;;;5088242;28;20048;-73
2021/12/17 08:57:11;;;;;;;34.30;11.68;;;9.20;99.90;;;;;;5080913;28;20040;-74
2021/12/17 08:59:37;;;;;;;37.05;12.38;;;9.20;99.90;;;;;;5082497;28;20045;-73
2021/12/17 09:02:04;;;;;;;34.22;11.80;;;9.20;99.90;;;;;;5088053;28;20044;-73
2021/12/17 09:04:30;;;;;;;38.33;12.77;;;9.30;99.90;;;;;;5082897;28;20545;-73
2021/12/17 09:06:56;;;;;;;40.55;13.15;;;9.20;99.90;;;;;;5089110;28;20135;-73
2021/12/17 09:09:23;;;;;;;36.75;13.00;;;9.30;99.90;;;;;;5089602;28;20040;-73
2021/12/17 09:11:50;;;;;;;38.35;12.55;;;9.40;99.90;;;;;;5092280;28;20047;-73
2021/12/17 09:14:19;;;;;;;35.88;12.35;;;9.40;99.90;;;;;;5093104;28;20044;-73
2021/12/17 09:16:49;;;;;;;33.40;12.05;;;9.40;99.90;;;;;;5092789;28;20036;-73
2021/12/17 09:19:15;;;;;;;36.30;12.10;;;9.40;99.90;;;;;;5117995;27;20039;-73
2021/12/17 09:21:42;;;;;;;36.00;12.18;;;9.40;99.90;;;;;;5092070;28;20040;-73
2021/12/17 09:24:08;;;;;;;32.13;12.13;;;9.40;99.90;;;;;;5092471;28;20113;-74
2021/12/17 09:26:33;;;;;;;34.00;11.60;;;9.40;99.90;;;;;;5068061;28;20476;-74
2021/12/17 09:29:00;;;;;;;32.85;11.82;;;9.40;99.90;;;;;;5074899;28;20512;-74
2021/12/17 09:31:26;;;;;;;37.20;11.40;;;9.40;99.90;;;;;;5072694;28;20044;-73
2021/12/17 09:33:52;;;;;;;34.00;12.18;;;9.50;99.90;;;;;;5076435;28;20504;-75
2021/12/17 09:36:19;;;;;;;35.38;11.65;;;9.50;99.90;;;;;;5077191;28;20091;-73
2021/12/17 09:38:49;;;;;;;33.53;11.00;;;9.50;99.90;;;;;;5093631;28;20048;-75
2021/12/17 09:41:16;;;;;;;35.10;11.98;;;9.50;99.90;;;;;;5093944;28;20044;-74
2021/12/17 09:43:43;;;;;;;33.15;11.48;;;9.60;99.90;;;;;;5077264;28;20066;-74
2021/12/17 09:46:08;;;;;;;32.92;11.75;;;9.50;99.90;;;;;;5077007;28;20040;-75
2021/12/17 09:48:36;;;;;;;28.98;11.63;;;9.60;99.90;;;;;;5093601;28;20048;-73
2021/12/17 09:51:04;;;;;;;33.60;12.07;;;9.60;99.90;;;;;;5107563;28;20040;-73
2021/12/17 09:53:30;;;;;;;32.35;12.15;;;9.70;99.90;;;;;;5091290;28;20097;-73
2021/12/17 09:55:56;;;;;;;31.65;12.35;;;9.80;99.90;;;;;;5093700;28;20143;-73
2021/12/17 09:58:22;;;;;;;31.98;11.90;;;9.80;99.90;;;;;;5093006;28;20052;-73
2021/12/17 10:00:48;;;;;;;31.60;12.18;;;9.80;99.90;;;;;;5092196;28;20097;-72
2021/12/17 10:03:14;;;;;;;32.58;12.55;;;9.80;99.90;;;;;;5093253;28;20109;-73
2021/12/17 10:05:40;;;;;;;32.58;11.93;;;9.90;99.90;;;;;;5093121;28;20047;-73
2021/12/17 10:08:14;;;;;;;36.50;13.13;;;9.90;99.90;;;;;;5076785;28;20044;-73
2021/12/17 10:10:58;;;;;;;33.10;12.75;;;9.40;99.90;;;;;;5075539;28;20066;-73
2021/12/17 10:13:28;;;;;;;29.60;11.52;;;10.00;99.90;;;;;;5070205;28;20496;-73
2021/12/17 10:16:06;;;;;;;31.45;11.48;;;10.00;99.90;;;;;;5092507;28;20040;-73
2021/12/17 10:18:40;;;;;;;29.58;11.65;;;10.10;99.90;;;;;;5093546;28;20119;-73
2021/12/17 10:21:11;;;;;;;32.58;11.65;;;10.20;99.90;;;;;;5075497;28;20039;-73
2021/12/17 10:23:41;;;;;;;35.70;11.88;;;10.20;99.90;;;;;;5093184;28;20442;-73
2021/12/17 10:26:12;;;;;;;30.58;11.35;;;10.20;99.90;;;;;;5092882;28;20453;-73
2021/12/17 10:28:37;;;;;;;31.40;11.57;;;10.20;99.90;;;;;;5093124;28;20048;-74
2021/12/17 10:31:09;;;;;;;29.10;11.48;;;10.20;99.90;;;;;;5091262;28;20040;-74
2021/12/17 10:33:35;;;;;;;31.80;11.23;;;10.20;99.90;;;;;;5092660;28;20050;-72
2021/12/17 10:36:03;;;;;;;27.77;11.57;;;10.20;99.90;;;;;;5075879;28;20048;-73
2021/12/17 10:38:29;;;;;;;27.60;11.25;;;10.20;99.90;;;;;;5092519;28;20522;-73
2021/12/17 10:41:03;;;;;;;33.03;12.00;;;10.20;99.90;;;;;;5091706;28;20078;-73
2021/12/17 10:43:35;;;;;;;32.63;11.40;;;10.30;99.90;;;;;;5075085;28;20394;-73
2021/12/17 10:46:09;;;;;;;24.27;9.68;;;10.30;99.90;;;;;;5082281;28;20299;-73
2021/12/17 10:54:06;;;;;;;21.33;9.77;;;10.50;99.90;;;;;;5091249;28;20307;-72
2021/12/17 10:56:39;;;;;;;21.13;8.90;;;10.50;99.90;;;;;;5087798;28;20040;-73
2021/12/17 10:59:08;;;;;;;20.17;8.65;;;10.50;99.90;;;;;;5088933;28;20105;-73
2021/12/17 11:01:45;;;;;;;13.70;6.32;;;10.50;99.90;;;;;;5081859;28;20413;-73
2021/12/17 11:04:12;;;;;;;18.27;7.38;;;10.50;99.90;;;;;;5087663;28;20052;-73
2021/12/17 11:06:55;;;;;;;11.13;5.93;;;10.60;99.90;;;;;;5074254;28;20115;-75
2021/12/17 11:09:49;;;;;;;14.45;6.53;;;10.60;99.90;;;;;;5083127;28;20055;-73
2021/12/17 11:12:29;;;;;;;12.10;5.75;;;10.60;99.90;;;;;;5088816;28;20083;-73
2021/12/17 11:15:30;;;;;;;7.05;3.70;;;10.60;99.90;;;;;;5104616;28;20075;-73
2021/12/17 11:18:04;;;;;;;5.82;3.00;;;10.70;99.90;;;;;;5082541;28;20393;-73
2021/12/17 11:20:39;;;;;;;7.45;3.08;;;10.70;99.90;;;;;;5072847;28;20529;-73
2021/12/17 11:23:11;;;;;;;7.30;3.28;;;10.60;99.90;;;;;;5088266;28;20524;-73
2021/12/17 11:25:40;;;;;;;7.80;3.63;;;10.60;99.90;;;;;;5090598;28;20055;-73
2021/12/17 11:28:09;;;;;;;7.82;4.05;;;10.60;99.90;;;;;;5084855;28;20396;-73
2021/12/17 11:30:41;;;;;;;8.15;3.67;;;10.60;99.90;;;;;;5065774;28;20493;-73
2021/12/17 11:33:08;;;;;;;7.00;3.42;;;10.60;99.90;;;;;;5081986;28;20079;-74
2021/12/17 11:35:38;;;;;;;6.00;3.30;;;10.60;99.90;;;;;;5090030;28;20066;-73
2021/12/17 11:38:20;;;;;;;7.50;2.75;;;10.60;99.90;;;;;;5085043;28;20054;-74
2021/12/17 11:40:52;;;;;;;4.75;3.13;;;10.70;99.90;;;;;;5087519;28;20090;-73
2021/12/17 11:43:52;;;;;;;4.38;2.22;;;10.60;99.90;;;;;;5083669;28;20036;-73
2021/12/17 11:46:26;;;;;;;4.47;2.50;;;10.60;99.90;;;;;;5089070;28;20044;-73
2021/12/17 11:49:17;;;;;;;6.53;2.80;;;10.60;99.90;;;;;;5081573;28;20094;-74
2021/12/17 11:51:53;;;;;;;4.57;2.80;;;10.60;99.90;;;;;;5103429;28;20060;-73
2021/12/17 11:54:25;;;;;;;8.27;3.65;;;10.60;99.90;;;;;;5088614;28;20040;-74
2021/12/17 11:57:04;;;;;;;7.00;4.00;;;10.60;99.90;;;;;;5090739;28;20052;-73
2021/12/17 11:59:32;;;;;;;6.65;4.30;;;10.70;99.90;;;;;;5088212;28;20048;-73
2021/12/17 12:02:17;;;;;;;7.55;4.20;;;10.60;99.90;;;;;;5084289;28;20062;-72
2021/12/17 12:04:55;;;;;;;8.55;4.50;;;10.70;99.90;;;;;;5083689;28;20039;-73
2021/12/17 12:07:33;;;;;;;6.55;3.33;;;10.70;99.90;;;;;;5091168;28;20040;-72
2021/12/17 12:09:59;;;;;;;3.97;1.55;;;10.60;99.90;;;;;;5073956;28;20055;-72
2021/12/17 12:12:36;;;;;;;4.15;1.77;;;10.60;99.90;;;;;;5081213;28;20109;-74
2021/12/17 12:15:17;;;;;;;3.05;1.60;;;10.60;99.90;;;;;;5087243;28;20048;-74
2021/12/17 12:18:07;;;;;;;4.13;1.83;;;10.60;99.90;;;;;;5061304;28;20051;-73
2021/12/17 12:20:45;;;;;;;3.95;2.03;;;10.60;99.90;;;;;;5081185;28;20067;-73
2021/12/17 12:23:22;;;;;;;4.30;2.22;;;10.60;99.90;;;;;;5085290;28;20055;-72
2021/12/17 12:26:14;;;;;;;4.57;2.40;;;10.70;99.90;;;;;;5073296;28;21089;-72
2021/12/17 12:31:36;;;;;;;4.60;2.53;;;10.70;99.90;;;;;;5090277;28;20052;-73
2021/12/17 12:34:09;;;;;;;5.45;2.75;;;10.70;99.90;;;;;;5090121;28;20063;-72
2021/12/17 12:37:06;;;;;;;6.38;2.95;;;10.70;99.90;;;;;;5072470;28;20404;-73
2021/12/17 12:39:48;;;;;;;5.00;3.25;;;10.70;99.90;;;;;;5087360;28;20047;-74
2021/12/17 12:42:38;;;;;;;5.30;3.25;;;10.70;99.90;;;;;;5089541;28;20055;-72
2021/12/17 12:45:09;;;;;;;5.22;3.05;;;10.60;99.90;;;;;;5090987;28;20504;-73
2021/12/17 12:47:48;;;;;;;7.13;3.83;;;10.70;99.90;;;;;;5083945;28;20074;-73
2021/12/17 12:50:23;;;;;;;7.40;4.43;;;10.70;99.90;;;;;;5079567;28;20048;-72
2021/12/17 12:52:56;;;;;;;7.15;4.15;;;10.70;99.90;;;;;;5090264;28;20123;-72
2021/12/17 12:55:36;;;;;;;7.45;4.40;;;10.60;99.90;;;;;;5083373;28;20048;-72
2021/12/17 12:58:12;;;;;;;7.82;4.80;;;10.60;99.90;;;;;;5089881;28;20623;-73
2021/12/17 13:00:49;;;;;;;9.25;4.57;;;10.60;99.90;;;;;;5081488;28;20039;-76
2021/12/17 13:03:26;;;;;;;9.75;4.97;;;10.60;99.90;;;;;;5088711;28;20520;-72
2021/12/17 13:05:52;;;;;;;8.10;5.15;;;10.60;99.90;;;;;;5090232;28;20063;-72
2021/12/17 13:08:20;;;;;;;9.25;5.32;;;10.60;99.90;;;;;;5088694;28;20074;-73
2021/12/17 13:10:50;;;;;;;10.63;6.07;;;10.60;99.90;;;;;;5088305;28;20500;-73
2021/12/17 13:13:43;;;;;;;9.85;5.40;;;10.80;99.90;;;;;;5085960;28;20081;-74
2021/12/17 13:16:43;;;;;;;10.63;6.07;;;10.50;99.90;;;;;;5089979;28;20048;-74
2021/12/17 13:22:02;;;;;;;14.10;6.65;;;10.50;99.90;;;;;;5075181;28;20093;-74
2021/12/17 13:24:31;;;;;;;13.50;6.70;;;10.50;99.90;;;;;;5089580;28;20085;-73
2021/12/17 13:27:09;;;;;;;14.35;7.03;;;10.50;99.90;;;;;;5072509;28;20481;-73
2021/12/17 13:29:38;;;;;;;15.57;6.47;;;10.50;99.90;;;;;;5072820;28;20048;-73
2021/12/17 13:32:09;;;;;;;14.32;6.82;;;10.50;99.90;;;;;;5082665;28;20118;-73
2021/12/17 13:34:44;;;;;;;12.10;6.38;;;10.50;99.90;;;;;;5081188;28;20054;-73
2021/12/17 13:37:30;;;;;;;13.48;6.47;;;10.50;99.90;;;;;;5089506;28;20472;-72
2021/12/17 13:40:09;;;;;;;11.35;5.78;;;10.50;99.90;;;;;;5083010;28;20041;-73
2021/12/17 13:42:37;;;;;;;10.30;5.80;;;10.50;99.90;;;;;;5086865;28;20051;-73
2021/12/17 13:45:08;;;;;;;12.20;5.55;;;10.50;99.90;;;;;;5088210;28;20505;-75
2021/12/17 13:47:35;;;;;;;12.45;6.22;;;10.50;99.90;;;;;;5071974;28;20046;-73
2021/12/17 13:50:13;;;;;;;12.15;5.85;;;10.50;99.90;;;;;;5091495;28;20438;-72
2021/12/17 13:52:54;;;;;;;11.50;5.80;;;10.50;99.90;;;;;;5070760;28;20048;-73
2021/12/17 13:55:24;;;;;;;11.00;5.70;;;10.50;99.90;;;;;;5073045;28;20111;-73
2021/12/17 13:57:50;;;;;;;8.40;5.18;;;10.50;99.90;;;;;;5083383;28;20097;-74
2021/12/17 14:00:17;;;;;;;12.82;5.47;;;10.50;99.90;;;;;;5089474;28;20119;-73
2021/12/17 14:02:45;;;;;;;10.93;5.97;;;10.50;99.90;;;;;;5090647;28;20055;-73
2021/12/17 14:05:27;;;;;;;13.20;5.88;;;10.50;99.90;;;;;;5090984;28;20052;-73
2021/12/17 14:08:02;;;;;;;12.80;6.50;;;10.50;99.90;;;;;;5093170;28;20036;-74
2021/12/17 14:10:31;;;;;;;12.15;6.50;;;10.50;99.90;;;;;;5087059;28;20439;-72
2021/12/17 14:12:57;;;;;;;13.73;5.78;;;10.50;99.90;;;;;;5074884;28;20036;-73
2021/12/17 14:15:27;;;;;;;12.40;6.40;;;10.50;99.90;;;;;;5076095;28;20484;-73
2021/12/17 14:18:05;;;;;;;11.80;6.18;;;10.50;99.90;;;;;;5092014;28;20058;-73
2021/12/17 14:20:39;;;;;;;13.55;6.25;;;10.50;99.90;;;;;;5069045;28;20066;-73
2021/12/17 14:23:08;;;;;;;10.13;6.07;;;10.50;99.90;;;;;;5092254;28;20052;-73
2021/12/17 14:25:42;;;;;;;14.15;6.45;;;10.40;99.90;;;;;;5075192;28;20082;-73
2021/12/17 14:28:12;;;;;;;13.13;6.70;;;10.40;99.90;;;;;;5075530;28;20050;-73
2021/12/17 14:30:39;;;;;;;12.68;6.40;;;10.40;99.90;;;;;;5092226;28;20442;-73
2021/12/17 14:33:09;;;;;;;14.73;7.53;;;10.40;99.90;;;;;;5093002;28;20078;-73
2021/12/17 14:35:42;;;;;;;11.98;6.70;;;10.40;99.90;;;;;;5075539;28;20421;-73
2021/12/17 14:38:08;;;;;;;14.98;7.85;;;10.40;99.90;;;;;;5072538;28;20469;-73
2021/12/17 14:40:41;;;;;;;16.13;7.88;;;10.40;99.90;;;;;;5086612;28;20043;-73
2021/12/17 14:43:26;;;;;;;14.60;7.53;;;10.30;99.90;;;;;;5074450;28;20085;-73
2021/12/17 14:46:03;;;;;;;13.55;7.55;;;10.30;99.90;;;;;;5082162;28;20041;-73
2021/12/17 14:48:40;;;;;;;14.10;7.50;;;10.30;99.90;;;;;;5086637;28;20586;-73
2021/12/17 15:04:42;;;;;;;15.32;7.75;;;10.30;99.90;;;;;;5086349;28;20056;-73
2021/12/17 15:07:08;;;;;;;14.98;7.60;;;10.20;99.90;;;;;;5089630;28;20134;-73
2021/12/17 15:09:38;;;;;;;13.40;7.47;;;10.20;99.90;;;;;;5085865;28;20106;-73
2021/12/17 15:12:13;;;;;;;12.50;6.93;;;10.20;99.90;;;;;;5085362;28;20088;-74
2021/12/17 15:14:39;;;;;;;21.17;12.32;;;10.20;99.90;;;;;;5096554;28;20040;-74
2021/12/17 15:17:04;;;;;;;17.45;9.43;;;10.20;99.90;;;;;;5089424;28;20051;-73
2021/12/17 15:19:31;;;;;;;14.15;7.95;;;10.20;99.90;;;;;;5087239;28;20504;-73
2021/12/17 15:21:57;;;;;;;14.85;8.15;;;10.20;99.90;;;;;;5084355;28;20551;-74
2021/12/17 15:24:22;;;;;;;13.70;7.25;;;10.20;99.90;;;;;;5086147;28;20051;-73
2021/12/17 15:26:48;;;;;;;13.55;6.82;;;10.10;99.90;;;;;;5089905;28;20469;-74
2021/12/17 15:29:14;;;;;;;13.32;7.68;;;10.10;99.90;;;;;;5073189;28;20059;-74
2021/12/17 15:31:39;;;;;;;15.13;8.52;;;10.10;99.90;;;;;;5070506;28;20401;-73
2021/12/17 15:34:05;;;;;;;12.48;8.18;;;10.10;99.90;;;;;;5091213;28;20093;-73
2021/12/17 15:36:31;;;;;;;16.77;10.00;;;10.10;99.90;;;;;;5089269;28;20036;-73
2021/12/17 15:38:57;;;;;;;17.33;7.00;;;10.10;99.90;;;;;;5083588;28;20067;-73
2021/12/17 15:41:22;;;;;;;15.15;7.75;;;10.10;99.90;;;;;;5074356;28;20491;-73
2021/12/17 15:43:48;;;;;;;16.73;7.80;;;10.00;99.90;;;;;;5091763;28;20044;-74
2021/12/17 15:46:14;;;;;;;10.25;5.90;;;10.00;99.90;;;;;;5090969;28;20070;-74
2021/12/17 15:48:39;;;;;;;12.70;6.53;;;10.00;99.90;;;;;;5071113;28;20115;-73
2021/12/17 15:51:06;;;;;;;15.40;5.90;;;10.00;99.90;;;;;;5080470;28;20048;-74
2021/12/17 15:53:33;;;;;;;13.25;5.95;;;10.00;99.90;;;;;;5085395;28;20045;-73
2021/12/17 15:55:59;;;;;;;10.88;5.80;;;10.10;99.90;;;;;;5071684;28;20127;-74